sensor_id;sensor_type;location;lat;lon;timestamp;P1;durP1;ratioP1;P2;durP2;ratioP2
69754;SDS011;57023;52.218;5.158;2024-01-06T00:00:43;13.68;;;7.38;;
69754;SDS011;57023;52.218;5.158;2024-01-06T00:03:09;12.10;;;6.13;;
69754;SDS011;57023;52.218;5.158;2024-01-06T00:05:34;13.05;;;6.28;;
69754;SDS011;57023;52.218;5.158;2024-01-06T00:07:59;12.13;;;6.13;;
69754;SDS011;57023;52.218;5.158;2024-01-06T00:10:24;14.23;;;6.78;;
69754;SDS011;57023;52.218;5.158;2024-01-06T00:12:51;11.47;;;6.30;;
69754;SDS011;57023;52.218;5.158;2024-01-06T00:15:16;17.20;;;8.05;;
69754;SDS011;57023;52.218;5.158;2024-01-06T00:17:42;11.63;;;6.10;;
69754;SDS011;57023;52.218;5.158;2024-01-06T00:20:07;11.88;;;6.13;;
69754;SDS011;57023;52.218;5.158;2024-01-06T00:22:33;11.50;;;5.68;;
69754;SDS011;57023;52.218;5.158;2024-01-06T00:24:58;11.23;;;5.88;;
69754;SDS011;57023;52.218;5.158;2024-01-06T00:27:24;10.75;;;5.40;;
69754;SDS011;57023;52.218;5.158;2024-01-06T00:29:50;9.98;;;5.07;;
69754;SDS011;57023;52.218;5.158;2024-01-06T00:32:15;11.05;;;5.72;;
69754;SDS011;57023;52.218;5.158;2024-01-06T00:34:40;10.05;;;5.43;;
69754;SDS011;57023;52.218;5.158;2024-01-06T00:37:06;9.55;;;5.07;;
69754;SDS011;57023;52.218;5.158;2024-01-06T00:39:31;8.48;;;4.88;;
69754;SDS011;57023;52.218;5.158;2024-01-06T00:41:56;11.07;;;5.18;;
69754;SDS011;57023;52.218;5.158;2024-01-06T00:44:22;9.07;;;4.60;;
69754;SDS011;57023;52.218;5.158;2024-01-06T00:46:47;9.32;;;5.03;;
69754;SDS011;57023;52.218;5.158;2024-01-06T00:49:12;8.07;;;4.90;;
69754;SDS011;57023;52.218;5.158;2024-01-06T00:51:37;8.77;;;4.72;;
69754;SDS011;57023;52.218;5.158;2024-01-06T00:54:03;10.40;;;5.00;;
69754;SDS011;57023;52.218;5.158;2024-01-06T00:56:28;7.88;;;4.85;;
69754;SDS011;57023;52.218;5.158;2024-01-06T00:58:54;9.07;;;4.78;;
69754;SDS011;57023;52.218;5.158;2024-01-06T01:01:19;9.75;;;5.45;;
69754;SDS011;57023;52.218;5.158;2024-01-06T01:03:44;9.15;;;5.18;;
69754;SDS011;57023;52.218;5.158;2024-01-06T01:06:09;12.07;;;5.90;;
69754;SDS011;57023;52.218;5.158;2024-01-06T01:08:35;13.20;;;6.03;;
69754;SDS011;57023;52.218;5.158;2024-01-06T01:11:02;9.18;;;5.47;;
69754;SDS011;57023;52.218;5.158;2024-01-06T01:13:28;12.20;;;5.90;;
69754;SDS011;57023;52.218;5.158;2024-01-06T01:15:53;10.63;;;6.13;;
69754;SDS011;57023;52.218;5.158;2024-01-06T01:18:18;11.13;;;6.10;;
69754;SDS011;57023;52.218;5.158;2024-01-06T01:20:44;9.65;;;6.05;;
69754;SDS011;57023;52.218;5.158;2024-01-06T01:23:09;8.05;;;4.85;;
69754;SDS011;57023;52.218;5.158;2024-01-06T01:25:35;8.73;;;5.07;;
69754;SDS011;57023;52.218;5.158;2024-01-06T01:28:00;10.55;;;5.90;;
69754;SDS011;57023;52.218;5.158;2024-01-06T01:30:25;12.95;;;6.25;;
69754;SDS011;57023;52.218;5.158;2024-01-06T01:32:50;10.50;;;5.68;;
69754;SDS011;57023;52.218;5.158;2024-01-06T01:35:16;12.02;;;5.50;;
69754;SDS011;57023;52.218;5.158;2024-01-06T01:37:41;9.63;;;5.38;;
69754;SDS011;57023;52.218;5.158;2024-01-06T01:40:07;10.02;;;5.95;;
69754;SDS011;57023;52.218;5.158;2024-01-06T01:42:32;8.85;;;5.57;;
69754;SDS011;57023;52.218;5.158;2024-01-06T01:44:58;11.48;;;6.38;;
69754;SDS011;57023;52.218;5.158;2024-01-06T01:47:24;9.63;;;5.63;;
69754;SDS011;57023;52.218;5.158;2024-01-06T01:49:49;10.75;;;5.55;;
69754;SDS011;57023;52.218;5.158;2024-01-06T01:52:14;9.27;;;5.40;;
69754;SDS011;57023;52.218;5.158;2024-01-06T01:54:40;12.75;;;5.60;;
69754;SDS011;57023;52.218;5.158;2024-01-06T01:57:06;9.13;;;4.57;;
69754;SDS011;57023;52.218;5.158;2024-01-06T01:59:31;10.57;;;5.60;;
69754;SDS011;57023;52.218;5.158;2024-01-06T02:01:57;9.40;;;4.75;;
69754;SDS011;57023;52.218;5.158;2024-01-06T02:04:25;8.50;;;5.00;;
69754;SDS011;57023;52.218;5.158;2024-01-06T02:06:50;9.27;;;5.10;;
69754;SDS011;57023;52.218;5.158;2024-01-06T02:09:16;9.80;;;5.22;;
69754;SDS011;57023;52.218;5.158;2024-01-06T02:11:41;10.23;;;4.85;;
69754;SDS011;57023;52.218;5.158;2024-01-06T02:14:06;10.15;;;5.05;;
69754;SDS011;57023;52.218;5.158;2024-01-06T02:16:32;8.77;;;5.45;;
69754;SDS011;57023;52.218;5.158;2024-01-06T02:18:57;9.95;;;5.25;;
69754;SDS011;57023;52.218;5.158;2024-01-06T02:21:23;9.43;;;5.70;;
69754;SDS011;57023;52.218;5.158;2024-01-06T02:23:48;10.05;;;5.55;;
69754;SDS011;57023;52.218;5.158;2024-01-06T02:26:14;9.20;;;5.70;;
69754;SDS011;57023;52.218;5.158;2024-01-06T02:28:40;10.68;;;5.63;;
69754;SDS011;57023;52.218;5.158;2024-01-06T02:31:05;8.45;;;5.43;;
69754;SDS011;57023;52.218;5.158;2024-01-06T02:33:31;8.45;;;4.65;;
69754;SDS011;57023;52.218;5.158;2024-01-06T02:35:56;10.52;;;5.45;;
69754;SDS011;57023;52.218;5.158;2024-01-06T02:38:21;12.35;;;5.63;;
69754;SDS011;57023;52.218;5.158;2024-01-06T02:40:47;10.23;;;5.65;;
69754;SDS011;57023;52.218;5.158;2024-01-06T02:43:12;9.73;;;5.70;;
69754;SDS011;57023;52.218;5.158;2024-01-06T02:45:37;10.68;;;5.68;;
69754;SDS011;57023;52.218;5.158;2024-01-06T02:48:05;10.23;;;5.90;;
69754;SDS011;57023;52.218;5.158;2024-01-06T02:50:31;11.57;;;5.38;;
69754;SDS011;57023;52.218;5.158;2024-01-06T02:52:56;9.82;;;5.68;;
69754;SDS011;57023;52.218;5.158;2024-01-06T02:55:21;11.07;;;6.05;;
69754;SDS011;57023;52.218;5.158;2024-01-06T02:57:47;11.45;;;5.70;;
69754;SDS011;57023;52.218;5.158;2024-01-06T03:00:12;9.82;;;5.53;;
69754;SDS011;57023;52.218;5.158;2024-01-06T03:02:38;11.90;;;6.30;;
69754;SDS011;57023;52.218;5.158;2024-01-06T03:05:06;12.27;;;5.43;;
69754;SDS011;57023;52.218;5.158;2024-01-06T03:07:32;10.25;;;5.72;;
69754;SDS011;57023;52.218;5.158;2024-01-06T03:09:58;12.65;;;6.22;;
69754;SDS011;57023;52.218;5.158;2024-01-06T03:12:26;12.52;;;6.82;;
69754;SDS011;57023;52.218;5.158;2024-01-06T03:14:51;12.18;;;5.97;;
69754;SDS011;57023;52.218;5.158;2024-01-06T03:17:17;12.32;;;6.80;;
69754;SDS011;57023;52.218;5.158;2024-01-06T03:19:43;11.30;;;6.65;;
69754;SDS011;57023;52.218;5.158;2024-01-06T03:22:11;12.32;;;7.25;;
69754;SDS011;57023;52.218;5.158;2024-01-06T03:24:37;11.48;;;6.40;;
69754;SDS011;57023;52.218;5.158;2024-01-06T03:27:02;11.93;;;5.97;;
69754;SDS011;57023;52.218;5.158;2024-01-06T03:29:27;11.73;;;6.32;;
69754;SDS011;57023;52.218;5.158;2024-01-06T03:31:53;12.82;;;7.10;;
69754;SDS011;57023;52.218;5.158;2024-01-06T03:34:18;12.10;;;6.22;;
69754;SDS011;57023;52.218;5.158;2024-01-06T03:36:43;11.63;;;6.70;;
69754;SDS011;57023;52.218;5.158;2024-01-06T03:39:09;11.20;;;6.55;;
69754;SDS011;57023;52.218;5.158;2024-01-06T03:41:35;12.75;;;7.00;;
69754;SDS011;57023;52.218;5.158;2024-01-06T03:44:00;11.10;;;6.25;;
69754;SDS011;57023;52.218;5.158;2024-01-06T03:46:26;13.02;;;6.95;;
69754;SDS011;57023;52.218;5.158;2024-01-06T03:48:51;14.88;;;7.28;;
69754;SDS011;57023;52.218;5.158;2024-01-06T03:51:16;12.70;;;7.05;;
69754;SDS011;57023;52.218;5.158;2024-01-06T03:53:42;13.73;;;7.15;;
69754;SDS011;57023;52.218;5.158;2024-01-06T03:56:07;13.38;;;7.65;;
69754;SDS011;57023;52.218;5.158;2024-01-06T03:58:32;12.80;;;6.93;;
69754;SDS011;57023;52.218;5.158;2024-01-06T04:00:58;12.57;;;7.32;;
69754;SDS011;57023;52.218;5.158;2024-01-06T04:03:23;17.02;;;7.30;;
69754;SDS011;57023;52.218;5.158;2024-01-06T04:05:49;13.20;;;7.22;;
69754;SDS011;57023;52.218;5.158;2024-01-06T04:08:14;12.45;;;6.50;;
69754;SDS011;57023;52.218;5.158;2024-01-06T04:10:39;13.77;;;7.32;;
69754;SDS011;57023;52.218;5.158;2024-01-06T04:13:06;13.10;;;6.88;;
69754;SDS011;57023;52.218;5.158;2024-01-06T04:15:32;13.18;;;6.68;;
69754;SDS011;57023;52.218;5.158;2024-01-06T04:18:00;14.45;;;7.40;;
69754;SDS011;57023;52.218;5.158;2024-01-06T04:20:26;14.05;;;6.78;;
69754;SDS011;57023;52.218;5.158;2024-01-06T04:22:52;13.05;;;7.25;;
69754;SDS011;57023;52.218;5.158;2024-01-06T04:25:17;12.20;;;6.72;;
69754;SDS011;57023;52.218;5.158;2024-01-06T04:27:42;14.25;;;6.80;;
69754;SDS011;57023;52.218;5.158;2024-01-06T04:30:08;13.00;;;6.68;;
69754;SDS011;57023;52.218;5.158;2024-01-06T04:32:34;12.98;;;6.68;;
69754;SDS011;57023;52.218;5.158;2024-01-06T04:34:59;13.73;;;6.97;;
69754;SDS011;57023;52.218;5.158;2024-01-06T04:37:25;13.65;;;7.00;;
69754;SDS011;57023;52.218;5.158;2024-01-06T04:39:50;13.38;;;7.10;;
69754;SDS011;57023;52.218;5.158;2024-01-06T04:42:15;14.18;;;6.72;;
69754;SDS011;57023;52.218;5.158;2024-01-06T04:44:41;16.20;;;6.93;;
69754;SDS011;57023;52.218;5.158;2024-01-06T04:47:06;13.45;;;7.13;;
69754;SDS011;57023;52.218;5.158;2024-01-06T04:49:31;14.40;;;6.72;;
69754;SDS011;57023;52.218;5.158;2024-01-06T04:51:56;17.98;;;7.07;;
69754;SDS011;57023;52.218;5.158;2024-01-06T04:54:22;15.48;;;7.28;;
69754;SDS011;57023;52.218;5.158;2024-01-06T04:56:47;12.27;;;6.80;;
69754;SDS011;57023;52.218;5.158;2024-01-06T04:59:13;12.77;;;6.53;;
69754;SDS011;57023;52.218;5.158;2024-01-06T05:01:38;13.38;;;6.38;;
69754;SDS011;57023;52.218;5.158;2024-01-06T05:04:03;14.63;;;6.88;;
69754;SDS011;57023;52.218;5.158;2024-01-06T05:06:29;10.43;;;5.65;;
69754;SDS011;57023;52.218;5.158;2024-01-06T05:08:54;11.00;;;5.38;;
69754;SDS011;57023;52.218;5.158;2024-01-06T05:11:19;10.63;;;5.30;;
69754;SDS011;57023;52.218;5.158;2024-01-06T05:13:44;10.73;;;5.40;;
69754;SDS011;57023;52.218;5.158;2024-01-06T05:16:10;9.40;;;5.22;;
69754;SDS011;57023;52.218;5.158;2024-01-06T05:18:35;10.00;;;5.20;;
69754;SDS011;57023;52.218;5.158;2024-01-06T05:21:01;11.60;;;5.03;;
69754;SDS011;57023;52.218;5.158;2024-01-06T05:23:26;9.02;;;4.15;;
69754;SDS011;57023;52.218;5.158;2024-01-06T05:25:52;10.25;;;4.75;;
69754;SDS011;57023;52.218;5.158;2024-01-06T05:28:17;9.35;;;5.25;;
69754;SDS011;57023;52.218;5.158;2024-01-06T05:30:42;11.32;;;5.30;;
69754;SDS011;57023;52.218;5.158;2024-01-06T05:33:12;12.90;;;6.28;;
69754;SDS011;57023;52.218;5.158;2024-01-06T05:35:38;10.07;;;5.43;;
69754;SDS011;57023;52.218;5.158;2024-01-06T05:38:06;12.20;;;5.95;;
69754;SDS011;57023;52.218;5.158;2024-01-06T05:40:31;11.50;;;5.72;;
69754;SDS011;57023;52.218;5.158;2024-01-06T05:42:57;12.48;;;5.70;;
69754;SDS011;57023;52.218;5.158;2024-01-06T05:45:22;11.40;;;5.50;;
69754;SDS011;57023;52.218;5.158;2024-01-06T05:47:47;11.90;;;6.10;;
69754;SDS011;57023;52.218;5.158;2024-01-06T05:50:14;15.07;;;6.05;;
69754;SDS011;57023;52.218;5.158;2024-01-06T05:55:06;13.43;;;6.00;;
69754;SDS011;57023;52.218;5.158;2024-01-06T05:57:34;16.00;;;6.60;;
69754;SDS011;57023;52.218;5.158;2024-01-06T05:59:59;12.07;;;6.38;;
69754;SDS011;57023;52.218;5.158;2024-01-06T06:02:25;12.07;;;5.93;;
69754;SDS011;57023;52.218;5.158;2024-01-06T06:04:50;10.88;;;5.72;;
69754;SDS011;57023;52.218;5.158;2024-01-06T06:07:17;11.82;;;5.55;;
69754;SDS011;57023;52.218;5.158;2024-01-06T06:09:42;12.32;;;6.50;;
69754;SDS011;57023;52.218;5.158;2024-01-06T06:12:07;14.70;;;6.07;;
69754;SDS011;57023;52.218;5.158;2024-01-06T06:14:33;10.15;;;5.75;;
69754;SDS011;57023;52.218;5.158;2024-01-06T06:16:58;10.68;;;5.38;;
69754;SDS011;57023;52.218;5.158;2024-01-06T06:19:23;9.27;;;4.82;;
69754;SDS011;57023;52.218;5.158;2024-01-06T06:21:49;8.73;;;4.70;;
69754;SDS011;57023;52.218;5.158;2024-01-06T06:24:14;8.70;;;5.35;;
69754;SDS011;57023;52.218;5.158;2024-01-06T06:26:39;10.68;;;5.32;;
69754;SDS011;57023;52.218;5.158;2024-01-06T06:29:05;8.57;;;4.95;;
69754;SDS011;57023;52.218;5.158;2024-01-06T06:31:30;10.15;;;5.10;;
69754;SDS011;57023;52.218;5.158;2024-01-06T06:33:55;11.93;;;5.90;;
69754;SDS011;57023;52.218;5.158;2024-01-06T06:36:20;10.38;;;5.30;;
69754;SDS011;57023;52.218;5.158;2024-01-06T06:38:46;11.88;;;5.85;;
69754;SDS011;57023;52.218;5.158;2024-01-06T06:41:11;10.02;;;5.10;;
69754;SDS011;57023;52.218;5.158;2024-01-06T06:43:36;9.50;;;5.15;;
69754;SDS011;57023;52.218;5.158;2024-01-06T06:46:02;8.82;;;5.25;;
69754;SDS011;57023;52.218;5.158;2024-01-06T06:48:27;10.57;;;6.00;;
69754;SDS011;57023;52.218;5.158;2024-01-06T06:50:52;11.10;;;6.80;;
69754;SDS011;57023;52.218;5.158;2024-01-06T06:53:18;14.30;;;7.13;;
69754;SDS011;57023;52.218;5.158;2024-01-06T06:55:43;14.05;;;5.82;;
69754;SDS011;57023;52.218;5.158;2024-01-06T06:58:08;12.75;;;5.88;;
69754;SDS011;57023;52.218;5.158;2024-01-06T07:00:34;12.60;;;6.60;;
69754;SDS011;57023;52.218;5.158;2024-01-06T07:03:00;11.30;;;6.55;;
69754;SDS011;57023;52.218;5.158;2024-01-06T07:05:25;13.18;;;7.15;;
69754;SDS011;57023;52.218;5.158;2024-01-06T07:07:52;12.52;;;6.95;;
69754;SDS011;57023;52.218;5.158;2024-01-06T07:10:17;14.68;;;7.75;;
69754;SDS011;57023;52.218;5.158;2024-01-06T07:12:43;15.50;;;7.97;;
69754;SDS011;57023;52.218;5.158;2024-01-06T07:15:08;15.70;;;7.40;;
69754;SDS011;57023;52.218;5.158;2024-01-06T07:17:36;17.95;;;7.70;;
69754;SDS011;57023;52.218;5.158;2024-01-06T07:20:03;17.60;;;8.47;;
69754;SDS011;57023;52.218;5.158;2024-01-06T07:22:29;16.98;;;7.43;;
69754;SDS011;57023;52.218;5.158;2024-01-06T07:24:54;14.48;;;8.07;;
69754;SDS011;57023;52.218;5.158;2024-01-06T07:27:20;15.10;;;7.53;;
69754;SDS011;57023;52.218;5.158;2024-01-06T07:29:45;18.70;;;8.80;;
69754;SDS011;57023;52.218;5.158;2024-01-06T07:32:11;15.63;;;6.85;;
69754;SDS011;57023;52.218;5.158;2024-01-06T07:34:36;14.57;;;7.97;;
69754;SDS011;57023;52.218;5.158;2024-01-06T07:37:01;15.20;;;7.63;;
69754;SDS011;57023;52.218;5.158;2024-01-06T07:39:26;13.15;;;7.43;;
69754;SDS011;57023;52.218;5.158;2024-01-06T07:41:52;11.70;;;7.00;;
69754;SDS011;57023;52.218;5.158;2024-01-06T07:44:17;13.95;;;7.90;;
69754;SDS011;57023;52.218;5.158;2024-01-06T07:46:49;14.05;;;8.00;;
69754;SDS011;57023;52.218;5.158;2024-01-06T07:49:15;14.40;;;7.88;;
69754;SDS011;57023;52.218;5.158;2024-01-06T07:51:40;13.38;;;7.50;;
69754;SDS011;57023;52.218;5.158;2024-01-06T07:54:06;10.95;;;5.40;;
69754;SDS011;57023;52.218;5.158;2024-01-06T07:56:33;12.00;;;7.20;;
69754;SDS011;57023;52.218;5.158;2024-01-06T07:58:59;11.68;;;7.65;;
69754;SDS011;57023;52.218;5.158;2024-01-06T08:01:24;13.70;;;7.35;;
69754;SDS011;57023;52.218;5.158;2024-01-06T08:03:49;14.93;;;7.20;;
69754;SDS011;57023;52.218;5.158;2024-01-06T08:06:15;10.82;;;6.53;;
69754;SDS011;57023;52.218;5.158;2024-01-06T08:08:40;13.10;;;7.22;;
69754;SDS011;57023;52.218;5.158;2024-01-06T08:11:06;15.48;;;7.28;;
69754;SDS011;57023;52.218;5.158;2024-01-06T08:13:31;11.68;;;6.93;;
69754;SDS011;57023;52.218;5.158;2024-01-06T08:15:56;12.07;;;6.90;;
69754;SDS011;57023;52.218;5.158;2024-01-06T08:18:22;18.30;;;7.82;;
69754;SDS011;57023;52.218;5.158;2024-01-06T08:20:47;15.15;;;7.18;;
69754;SDS011;57023;52.218;5.158;2024-01-06T08:23:12;10.93;;;7.28;;
69754;SDS011;57023;52.218;5.158;2024-01-06T08:25:38;13.00;;;7.90;;
69754;SDS011;57023;52.218;5.158;2024-01-06T08:28:03;12.57;;;6.63;;
69754;SDS011;57023;52.218;5.158;2024-01-06T08:30:29;10.85;;;6.40;;
69754;SDS011;57023;52.218;5.158;2024-01-06T08:32:54;14.18;;;6.45;;
69754;SDS011;57023;52.218;5.158;2024-01-06T08:35:19;11.85;;;6.03;;
69754;SDS011;57023;52.218;5.158;2024-01-06T08:37:45;12.98;;;6.60;;
69754;SDS011;57023;52.218;5.158;2024-01-06T08:40:11;11.07;;;6.05;;
69754;SDS011;57023;52.218;5.158;2024-01-06T08:42:36;12.95;;;6.38;;
69754;SDS011;57023;52.218;5.158;2024-01-06T08:45:02;10.18;;;5.95;;
69754;SDS011;57023;52.218;5.158;2024-01-06T08:47:27;10.63;;;5.30;;
69754;SDS011;57023;52.218;5.158;2024-01-06T08:49:53;12.10;;;6.20;;
69754;SDS011;57023;52.218;5.158;2024-01-06T08:52:18;10.50;;;5.75;;
69754;SDS011;57023;52.218;5.158;2024-01-06T08:54:43;10.95;;;6.03;;
69754;SDS011;57023;52.218;5.158;2024-01-06T08:57:09;9.77;;;5.70;;
69754;SDS011;57023;52.218;5.158;2024-01-06T08:59:34;10.90;;;6.18;;
69754;SDS011;57023;52.218;5.158;2024-01-06T09:02:00;11.45;;;5.78;;
69754;SDS011;57023;52.218;5.158;2024-01-06T09:04:26;8.27;;;5.13;;
69754;SDS011;57023;52.218;5.158;2024-01-06T09:06:51;11.15;;;5.95;;
69754;SDS011;57023;52.218;5.158;2024-01-06T09:09:17;9.88;;;5.65;;
69754;SDS011;57023;52.218;5.158;2024-01-06T09:11:42;11.05;;;5.82;;
69754;SDS011;57023;52.218;5.158;2024-01-06T09:14:09;9.07;;;5.23;;
69754;SDS011;57023;52.218;5.158;2024-01-06T09:16:35;10.43;;;5.70;;
69754;SDS011;57023;52.218;5.158;2024-01-06T09:19:01;11.63;;;5.53;;
69754;SDS011;57023;52.218;5.158;2024-01-06T09:21:26;11.95;;;6.30;;
69754;SDS011;57023;52.218;5.158;2024-01-06T09:23:52;9.73;;;5.63;;
69754;SDS011;57023;52.218;5.158;2024-01-06T09:26:17;12.80;;;6.30;;
69754;SDS011;57023;52.218;5.158;2024-01-06T09:28:42;9.45;;;5.05;;
69754;SDS011;57023;52.218;5.158;2024-01-06T09:31:08;9.25;;;5.18;;
69754;SDS011;57023;52.218;5.158;2024-01-06T09:33:33;9.45;;;6.00;;
69754;SDS011;57023;52.218;5.158;2024-01-06T09:35:59;7.88;;;5.35;;
69754;SDS011;57023;52.218;5.158;2024-01-06T09:38:24;9.07;;;5.70;;
69754;SDS011;57023;52.218;5.158;2024-01-06T09:40:50;10.93;;;6.13;;
69754;SDS011;57023;52.218;5.158;2024-01-06T09:43:16;11.15;;;6.00;;
69754;SDS011;57023;52.218;5.158;2024-01-06T09:45:41;10.35;;;5.88;;
69754;SDS011;57023;52.218;5.158;2024-01-06T09:48:11;12.60;;;6.53;;
69754;SDS011;57023;52.218;5.158;2024-01-06T09:50:40;10.55;;;6.03;;
69754;SDS011;57023;52.218;5.158;2024-01-06T09:53:08;10.57;;;6.40;;
69754;SDS011;57023;52.218;5.158;2024-01-06T09:55:36;9.43;;;6.55;;
69754;SDS011;57023;52.218;5.158;2024-01-06T09:58:01;10.52;;;6.40;;
69754;SDS011;57023;52.218;5.158;2024-01-06T10:00:27;11.70;;;6.18;;
69754;SDS011;57023;52.218;5.158;2024-01-06T10:02:53;11.35;;;6.35;;
69754;SDS011;57023;52.218;5.158;2024-01-06T10:05:20;8.93;;;5.80;;
69754;SDS011;57023;52.218;5.158;2024-01-06T10:07:46;11.18;;;6.10;;
69754;SDS011;57023;52.218;5.158;2024-01-06T10:10:11;11.52;;;5.55;;
69754;SDS011;57023;52.218;5.158;2024-01-06T10:12:37;11.35;;;5.63;;
69754;SDS011;57023;52.218;5.158;2024-01-06T10:15:04;10.85;;;6.07;;
69754;SDS011;57023;52.218;5.158;2024-01-06T10:17:31;9.10;;;6.18;;
69754;SDS011;57023;52.218;5.158;2024-01-06T10:20:00;10.00;;;5.80;;
69754;SDS011;57023;52.218;5.158;2024-01-06T10:22:26;10.77;;;6.30;;
69754;SDS011;57023;52.218;5.158;2024-01-06T10:24:51;11.35;;;5.97;;
69754;SDS011;57023;52.218;5.158;2024-01-06T10:27:16;11.45;;;6.18;;
69754;SDS011;57023;52.218;5.158;2024-01-06T10:29:42;9.27;;;5.90;;
69754;SDS011;57023;52.218;5.158;2024-01-06T10:32:07;10.10;;;5.68;;
69754;SDS011;57023;52.218;5.158;2024-01-06T10:34:33;10.23;;;5.53;;
69754;SDS011;57023;52.218;5.158;2024-01-06T10:36:58;10.30;;;5.38;;
69754;SDS011;57023;52.218;5.158;2024-01-06T10:39:24;8.15;;;5.80;;
69754;SDS011;57023;52.218;5.158;2024-01-06T10:41:49;8.18;;;5.22;;
69754;SDS011;57023;52.218;5.158;2024-01-06T10:44:14;10.82;;;5.60;;
69754;SDS011;57023;52.218;5.158;2024-01-06T10:46:41;9.05;;;5.60;;
69754;SDS011;57023;52.218;5.158;2024-01-06T10:49:06;9.85;;;4.88;;
69754;SDS011;57023;52.218;5.158;2024-01-06T10:51:36;9.88;;;5.57;;
69754;SDS011;57023;52.218;5.158;2024-01-06T10:54:02;9.38;;;5.90;;
69754;SDS011;57023;52.218;5.158;2024-01-06T10:56:27;8.82;;;5.43;;
69754;SDS011;57023;52.218;5.158;2024-01-06T10:58:54;10.38;;;5.70;;
69754;SDS011;57023;52.218;5.158;2024-01-06T11:01:24;10.15;;;5.70;;
69754;SDS011;57023;52.218;5.158;2024-01-06T11:03:49;10.40;;;5.97;;
69754;SDS011;57023;52.218;5.158;2024-01-06T11:06:15;10.90;;;5.32;;
69754;SDS011;57023;52.218;5.158;2024-01-06T11:08:57;10.32;;;4.90;;
69754;SDS011;57023;52.218;5.158;2024-01-06T11:11:27;10.27;;;5.63;;
69754;SDS011;57023;52.218;5.158;2024-01-06T11:13:53;12.05;;;5.90;;
69754;SDS011;57023;52.218;5.158;2024-01-06T11:16:48;10.43;;;5.80;;
69754;SDS011;57023;52.218;5.158;2024-01-06T11:19:59;11.35;;;5.55;;
69754;SDS011;57023;52.218;5.158;2024-01-06T11:22:18;9.57;;;5.72;;
69754;SDS011;57023;52.218;5.158;2024-01-06T11:24:47;12.80;;;6.57;;
69754;SDS011;57023;52.218;5.158;2024-01-06T11:27:17;11.07;;;6.07;;
69754;SDS011;57023;52.218;5.158;2024-01-06T11:29:47;11.82;;;6.18;;
69754;SDS011;57023;52.218;5.158;2024-01-06T11:32:46;13.13;;;6.55;;
69754;SDS011;57023;52.218;5.158;2024-01-06T11:37:36;10.43;;;6.45;;
69754;SDS011;57023;52.218;5.158;2024-01-06T11:40:10;12.18;;;6.80;;
69754;SDS011;57023;52.218;5.158;2024-01-06T11:42:44;11.20;;;6.35;;
69754;SDS011;57023;52.218;5.158;2024-01-06T11:45:10;11.63;;;6.72;;
69754;SDS011;57023;52.218;5.158;2024-01-06T11:47:35;10.18;;;5.75;;
69754;SDS011;57023;52.218;5.158;2024-01-06T11:50:01;9.15;;;5.88;;
69754;SDS011;57023;52.218;5.158;2024-01-06T11:52:31;11.18;;;5.82;;
69754;SDS011;57023;52.218;5.158;2024-01-06T11:54:57;11.15;;;5.88;;
69754;SDS011;57023;52.218;5.158;2024-01-06T11:57:24;11.13;;;6.18;;
69754;SDS011;57023;52.218;5.158;2024-01-06T11:59:50;13.70;;;7.07;;
69754;SDS011;57023;52.218;5.158;2024-01-06T12:02:17;9.98;;;6.25;;
69754;SDS011;57023;52.218;5.158;2024-01-06T12:04:45;11.40;;;6.10;;
69754;SDS011;57023;52.218;5.158;2024-01-06T12:07:16;9.75;;;5.70;;
69754;SDS011;57023;52.218;5.158;2024-01-06T12:09:41;11.15;;;6.47;;
69754;SDS011;57023;52.218;5.158;2024-01-06T12:12:07;10.60;;;6.03;;
69754;SDS011;57023;52.218;5.158;2024-01-06T12:14:32;10.02;;;6.10;;
69754;SDS011;57023;52.218;5.158;2024-01-06T12:16:58;12.02;;;6.40;;
69754;SDS011;57023;52.218;5.158;2024-01-06T12:19:28;9.63;;;5.75;;
69754;SDS011;57023;52.218;5.158;2024-01-06T12:21:56;19.92;;;6.20;;
69754;SDS011;57023;52.218;5.158;2024-01-06T12:24:22;9.35;;;6.00;;
69754;SDS011;57023;52.218;5.158;2024-01-06T12:26:48;9.93;;;6.35;;
69754;SDS011;57023;52.218;5.158;2024-01-06T12:29:14;12.98;;;6.35;;
69754;SDS011;57023;52.218;5.158;2024-01-06T12:31:39;11.32;;;6.75;;
69754;SDS011;57023;52.218;5.158;2024-01-06T12:34:05;16.17;;;7.20;;
69754;SDS011;57023;52.218;5.158;2024-01-06T12:36:32;12.05;;;7.30;;
69754;SDS011;57023;52.218;5.158;2024-01-06T12:38:59;11.13;;;6.68;;
69754;SDS011;57023;52.218;5.158;2024-01-06T12:41:25;11.63;;;6.65;;
69754;SDS011;57023;52.218;5.158;2024-01-06T12:43:52;12.40;;;7.10;;
69754;SDS011;57023;52.218;5.158;2024-01-06T12:46:18;12.57;;;7.05;;
69754;SDS011;57023;52.218;5.158;2024-01-06T12:48:43;15.60;;;6.85;;
69754;SDS011;57023;52.218;5.158;2024-01-06T12:51:08;13.23;;;7.20;;
69754;SDS011;57023;52.218;5.158;2024-01-06T12:53:33;12.57;;;7.38;;
69754;SDS011;57023;52.218;5.158;2024-01-06T12:55:59;15.10;;;7.22;;
69754;SDS011;57023;52.218;5.158;2024-01-06T12:58:24;13.70;;;7.15;;
69754;SDS011;57023;52.218;5.158;2024-01-06T13:00:49;13.60;;;7.57;;
69754;SDS011;57023;52.218;5.158;2024-01-06T13:03:15;14.27;;;7.68;;
69754;SDS011;57023;52.218;5.158;2024-01-06T13:05:40;12.93;;;7.53;;
69754;SDS011;57023;52.218;5.158;2024-01-06T13:08:05;13.15;;;7.28;;
69754;SDS011;57023;52.218;5.158;2024-01-06T13:10:31;12.15;;;6.68;;
69754;SDS011;57023;52.218;5.158;2024-01-06T13:12:56;11.68;;;6.47;;
69754;SDS011;57023;52.218;5.158;2024-01-06T13:15:22;13.48;;;6.95;;
69754;SDS011;57023;52.218;5.158;2024-01-06T13:17:47;16.92;;;8.00;;
69754;SDS011;57023;52.218;5.158;2024-01-06T13:20:14;14.38;;;7.32;;
69754;SDS011;57023;52.218;5.158;2024-01-06T13:22:41;12.65;;;7.72;;
69754;SDS011;57023;52.218;5.158;2024-01-06T13:25:06;12.20;;;7.65;;
69754;SDS011;57023;52.218;5.158;2024-01-06T13:27:33;16.15;;;8.55;;
69754;SDS011;57023;52.218;5.158;2024-01-06T13:29:58;13.05;;;7.63;;
69754;SDS011;57023;52.218;5.158;2024-01-06T13:32:24;14.20;;;8.20;;
69754;SDS011;57023;52.218;5.158;2024-01-06T13:34:51;13.43;;;7.65;;
69754;SDS011;57023;52.218;5.158;2024-01-06T13:37:19;15.85;;;8.73;;
69754;SDS011;57023;52.218;5.158;2024-01-06T13:39:47;17.23;;;9.88;;
69754;SDS011;57023;52.218;5.158;2024-01-06T13:42:12;15.90;;;9.50;;
69754;SDS011;57023;52.218;5.158;2024-01-06T13:44:37;21.80;;;10.18;;
69754;SDS011;57023;52.218;5.158;2024-01-06T13:47:03;17.42;;;8.30;;
69754;SDS011;57023;52.218;5.158;2024-01-06T13:49:31;13.40;;;7.35;;
69754;SDS011;57023;52.218;5.158;2024-01-06T13:51:56;12.77;;;7.13;;
69754;SDS011;57023;52.218;5.158;2024-01-06T13:54:23;12.23;;;6.78;;
69754;SDS011;57023;52.218;5.158;2024-01-06T13:56:48;13.50;;;7.63;;
69754;SDS011;57023;52.218;5.158;2024-01-06T13:59:13;14.10;;;8.00;;
69754;SDS011;57023;52.218;5.158;2024-01-06T14:01:39;13.40;;;8.02;;
69754;SDS011;57023;52.218;5.158;2024-01-06T14:04:07;15.15;;;8.38;;
69754;SDS011;57023;52.218;5.158;2024-01-06T14:06:32;18.90;;;9.45;;
69754;SDS011;57023;52.218;5.158;2024-01-06T14:08:59;13.63;;;7.38;;
69754;SDS011;57023;52.218;5.158;2024-01-06T14:11:25;11.95;;;7.05;;
69754;SDS011;57023;52.218;5.158;2024-01-06T14:13:51;14.20;;;7.68;;
69754;SDS011;57023;52.218;5.158;2024-01-06T14:16:17;12.77;;;7.75;;
69754;SDS011;57023;52.218;5.158;2024-01-06T14:18:43;12.25;;;7.25;;
69754;SDS011;57023;52.218;5.158;2024-01-06T14:21:11;12.88;;;7.80;;
69754;SDS011;57023;52.218;5.158;2024-01-06T14:23:39;13.15;;;7.80;;
69754;SDS011;57023;52.218;5.158;2024-01-06T14:26:04;11.80;;;7.20;;
69754;SDS011;57023;52.218;5.158;2024-01-06T14:28:29;14.13;;;7.32;;
69754;SDS011;57023;52.218;5.158;2024-01-06T14:30:55;13.43;;;7.47;;
69754;SDS011;57023;52.218;5.158;2024-01-06T14:33:20;11.98;;;7.15;;
69754;SDS011;57023;52.218;5.158;2024-01-06T14:35:46;13.18;;;7.18;;